createdAt,value
2019-04-29T00:01:40.113Z,13.37
2019-04-29T00:04:10.331Z,13.40
2019-04-29T00:06:40.139Z,14.70
2019-04-29T00:09:13.070Z,12.40
2019-04-29T00:11:43.150Z,13.97
2019-04-29T00:14:13.196Z,13.97
2019-04-29T00:16:50.272Z,14.23
2019-04-29T00:19:27.421Z,15.03
2019-04-29T00:21:57.774Z,13.43
2019-04-29T00:24:27.421Z,13.27
2019-04-29T00:26:56.939Z,14.80
2019-04-29T00:29:26.547Z,12.77
2019-04-29T00:31:55.993Z,13.43
2019-04-29T00:34:25.885Z,12.90
2019-04-29T00:36:57.876Z,12.53
2019-04-29T00:39:29.405Z,14.43
2019-04-29T00:42:06.771Z,13.60
2019-04-29T00:44:36.501Z,12.07
2019-04-29T00:47:06.462Z,13.27
2019-04-29T00:49:36.327Z,14.60
2019-04-29T00:52:05.985Z,14.00
2019-04-29T00:54:45.654Z,14.03
2019-04-29T00:57:15.170Z,14.40
2019-04-29T00:59:44.690Z,16.00
2019-04-29T01:02:15.371Z,14.27
2019-04-29T01:04:44.881Z,13.13
2019-04-29T01:07:14.401Z,15.17
2019-04-29T01:09:43.929Z,13.10
2019-04-29T01:12:13.443Z,12.40
2019-04-29T01:14:43.351Z,12.57
2019-04-29T01:17:12.907Z,12.87
2019-04-29T01:19:42.764Z,13.10
2019-04-29T01:22:12.575Z,13.40
2019-04-29T01:24:42.268Z,14.17
2019-04-29T01:27:19.277Z,13.00
2019-04-29T01:29:48.821Z,14.73
2019-04-29T01:32:18.895Z,14.20
2019-04-29T01:34:55.332Z,14.57
2019-04-29T01:37:26.503Z,13.53
2019-04-29T01:39:58.022Z,12.73
2019-04-29T01:42:31.907Z,12.57
2019-04-29T01:45:01.441Z,14.63
2019-04-29T01:47:30.987Z,12.30
2019-04-29T01:50:00.512Z,12.23
2019-04-29T01:52:30.390Z,14.20
2019-04-29T01:55:00.011Z,14.33
2019-04-29T01:57:29.521Z,14.57
2019-04-29T01:59:59.416Z,14.20
2019-04-29T02:02:28.957Z,16.20
2019-04-29T02:04:58.507Z,15.10
2019-04-29T02:07:27.946Z,15.47
2019-04-29T02:09:59.129Z,13.00
2019-04-29T02:12:28.640Z,15.03
2019-04-29T02:14:58.078Z,14.10
2019-04-29T02:17:27.981Z,14.47
2019-04-29T02:19:57.806Z,15.10
2019-04-29T02:22:38.300Z,15.63
2019-04-29T02:25:09.520Z,13.90
2019-04-29T02:27:39.420Z,11.97
2019-04-29T02:30:10.682Z,13.80
2019-04-29T02:32:40.614Z,13.00
2019-04-29T02:35:10.202Z,13.80
2019-04-29T02:37:41.483Z,13.93
2019-04-29T02:40:13.097Z,13.53
2019-04-29T02:42:53.647Z,13.60
2019-04-29T02:45:25.204Z,14.43
2019-04-29T02:47:55.017Z,14.40
2019-04-29T02:50:24.690Z,13.37
2019-04-29T02:52:54.236Z,13.73
2019-04-29T02:55:25.505Z,14.80
2019-04-29T02:58:02.556Z,13.87
2019-04-29T03:00:33.699Z,12.43
2019-04-29T03:03:04.854Z,14.40
2019-04-29T03:05:39.768Z,13.03
2019-04-29T03:08:07.742Z,14.10
2019-04-29T03:10:37.329Z,12.80
2019-04-29T03:13:06.947Z,12.33
2019-04-29T03:15:39.523Z,12.60
2019-04-29T03:18:09.178Z,14.53
2019-04-29T03:20:49.223Z,12.83
2019-04-29T03:23:20.740Z,12.87
2019-04-29T03:25:50.396Z,13.70
2019-04-29T03:28:20.369Z,14.43
2019-04-29T03:30:50.032Z,13.67
2019-04-29T03:33:19.691Z,14.60
2019-04-29T03:35:49.293Z,13.07
2019-04-29T03:38:18.797Z,14.20
2019-04-29T03:40:51.112Z,12.97
2019-04-29T03:43:21.345Z,13.20
2019-04-29T03:45:50.864Z,13.07
2019-04-29T03:48:20.442Z,12.20
2019-04-29T03:50:50.202Z,12.27
2019-04-29T03:53:19.728Z,14.90
2019-04-29T03:55:50.809Z,13.00
2019-04-29T03:58:20.656Z,14.60
2019-04-29T04:00:51.876Z,13.10
2019-04-29T04:03:38.241Z,14.10
2019-04-29T04:06:15.200Z,13.73
2019-04-29T04:09:04.282Z,14.20
2019-04-29T04:11:18.078Z,15.17
2019-04-29T04:13:47.515Z,15.40
2019-04-29T04:16:27.739Z,12.80
2019-04-29T04:19:16.855Z,12.73
2019-04-29T04:21:46.823Z,15.10
2019-04-29T04:24:16.334Z,15.30
2019-04-29T04:26:45.904Z,14.23
2019-04-29T04:29:15.381Z,14.17
2019-04-29T04:31:44.901Z,12.73
2019-04-29T04:34:14.408Z,13.80
2019-04-29T04:36:43.897Z,12.73
2019-04-29T04:39:13.397Z,12.13
2019-04-29T04:41:43.259Z,13.10
2019-04-29T04:44:16.301Z,13.57
2019-04-29T04:46:45.822Z,12.37
2019-04-29T04:49:15.953Z,12.07
2019-04-29T04:51:45.613Z,12.87
2019-04-29T04:54:15.191Z,14.20
2019-04-29T04:56:44.707Z,13.40
2019-04-29T04:59:14.250Z,13.90
2019-04-29T05:01:43.770Z,12.87
2019-04-29T05:04:13.285Z,12.83
2019-04-29T05:06:42.895Z,13.90
2019-04-29T05:09:12.720Z,13.27
2019-04-29T05:11:42.431Z,11.90
2019-04-29T05:14:11.974Z,12.43
2019-04-29T05:16:41.490Z,14.00
2019-04-29T05:19:11.006Z,12.47
2019-04-29T05:21:40.569Z,12.10
2019-04-29T05:24:10.144Z,12.17
2019-04-29T05:26:39.774Z,13.77
2019-04-29T05:29:09.381Z,14.90
2019-04-29T05:31:38.892Z,15.33
2019-04-29T05:34:08.789Z,14.20
2019-04-29T05:36:39.986Z,13.80
2019-04-29T05:39:11.146Z,14.60
2019-04-29T05:41:40.682Z,14.43
2019-04-29T05:44:12.155Z,13.07
2019-04-29T05:46:43.993Z,15.23
2019-04-29T05:49:15.666Z,13.73
2019-04-29T05:51:46.854Z,14.67
2019-04-29T05:54:26.923Z,16.17
2019-04-29T05:56:55.432Z,13.30
2019-04-29T05:59:24.949Z,14.70
2019-04-29T06:01:54.735Z,14.30
2019-04-29T06:04:24.330Z,15.13
2019-04-29T06:06:53.845Z,14.47
2019-04-29T06:09:23.349Z,14.60
2019-04-29T06:11:52.833Z,14.90
2019-04-29T06:14:22.377Z,13.10
2019-04-29T06:16:52.888Z,14.60
2019-04-29T06:19:22.661Z,12.53
2019-04-29T06:21:52.097Z,11.97
2019-04-29T06:24:21.678Z,12.60
2019-04-29T06:26:51.723Z,12.50
2019-04-29T06:29:21.230Z,11.07
2019-04-29T06:31:52.574Z,14.30
2019-04-29T06:34:22.114Z,13.00
2019-04-29T06:36:51.553Z,14.67
2019-04-29T06:39:21.724Z,13.67
2019-04-29T06:41:51.634Z,13.40
2019-04-29T06:44:21.121Z,14.17
2019-04-29T06:46:54.444Z,12.20
2019-04-29T06:49:22.558Z,14.23
2019-04-29T06:51:52.077Z,14.43
2019-04-29T06:54:21.509Z,14.30
2019-04-29T06:56:51.071Z,13.90
2019-04-29T06:59:20.585Z,12.87
2019-04-29T07:01:50.108Z,14.50
2019-04-29T07:04:19.654Z,12.37
2019-04-29T07:06:57.244Z,13.80
2019-04-29T07:09:20.370Z,14.07
2019-04-29T07:11:50.382Z,14.20
2019-04-29T07:14:20.290Z,13.53
2019-04-29T07:16:49.799Z,13.00
2019-04-29T07:19:22.125Z,14.53
2019-04-29T07:21:53.984Z,15.90
2019-04-29T07:24:21.588Z,14.10
2019-04-29T07:26:51.210Z,13.90
2019-04-29T07:29:21.158Z,13.43
2019-04-29T07:31:51.093Z,12.60
2019-04-29T07:34:20.735Z,14.13
2019-04-29T07:36:53.164Z,11.97
2019-04-29T07:39:21.470Z,12.83
2019-04-29T07:41:53.771Z,12.73
2019-04-29T07:44:23.958Z,13.77
2019-04-29T07:47:01.852Z,13.43
2019-04-29T07:49:28.970Z,13.50
2019-04-29T07:51:58.868Z,14.67
2019-04-29T07:54:28.333Z,13.00
2019-04-29T07:56:57.780Z,13.17
2019-04-29T07:59:27.674Z,13.97
2019-04-29T08:01:59.910Z,13.20
2019-04-29T08:04:28.809Z,14.97
2019-04-29T08:06:58.644Z,13.20
2019-04-29T08:09:48.195Z,14.67
2019-04-29T08:12:18.517Z,14.80
2019-04-29T08:14:49.099Z,14.20
2019-04-29T08:17:18.654Z,13.13
2019-04-29T08:19:48.462Z,14.27
2019-04-29T08:22:18.409Z,12.83
2019-04-29T08:24:50.476Z,13.97
2019-04-29T08:27:19.563Z,14.03
2019-04-29T08:29:49.355Z,14.30
2019-04-29T08:32:19.281Z,15.07
2019-04-29T08:34:48.810Z,14.10
2019-04-29T08:37:18.333Z,14.27
2019-04-29T08:40:03.494Z,14.90
2019-04-29T08:42:22.304Z,14.90
2019-04-29T08:44:54.726Z,14.33
2019-04-29T08:47:31.617Z,14.67
2019-04-29T08:50:00.780Z,15.50
2019-04-29T08:52:30.367Z,14.73
2019-04-29T08:54:59.882Z,13.60
2019-04-29T08:57:31.758Z,13.80
2019-04-29T09:00:00.576Z,13.37
2019-04-29T09:02:35.057Z,15.00
2019-04-29T09:05:01.521Z,14.83
2019-04-29T09:07:31.044Z,16.60
2019-04-29T09:10:01.841Z,16.07
2019-04-29T09:12:31.829Z,13.83
2019-04-29T09:15:01.345Z,16.40
2019-04-29T09:17:30.854Z,16.83
2019-04-29T09:20:00.767Z,15.00
2019-04-29T09:22:31.995Z,14.60
2019-04-29T09:25:21.391Z,15.20
2019-04-29T09:27:52.293Z,14.97
2019-04-29T09:30:21.954Z,15.20
2019-04-29T09:32:51.806Z,15.90
2019-04-29T09:35:21.470Z,15.80
2019-04-29T09:37:53.865Z,15.47
2019-04-29T09:40:27.387Z,15.43
2019-04-29T09:43:15.901Z,14.93
2019-04-29T09:45:58.753Z,15.73
2019-04-29T09:48:27.477Z,15.57
2019-04-29T09:50:57.064Z,14.13
2019-04-29T09:53:26.694Z,16.23
2019-04-29T09:55:56.720Z,14.40
2019-04-29T09:58:26.480Z,14.83
2019-04-29T10:01:18.731Z,16.27
2019-04-29T10:03:55.849Z,14.40
2019-04-29T10:06:27.086Z,15.30
2019-04-29T10:08:56.568Z,14.37
2019-04-29T10:11:28.207Z,15.10
2019-04-29T10:13:58.322Z,13.97
2019-04-29T10:16:45.742Z,14.13
2019-04-29T10:19:33.439Z,14.90
2019-04-29T10:22:03.088Z,17.60
2019-04-29T10:24:32.999Z,16.10
2019-04-29T10:27:02.559Z,16.60
2019-04-29T10:29:32.867Z,15.67
2019-04-29T10:32:06.957Z,13.67
2019-04-29T10:34:35.833Z,13.77
2019-04-29T10:37:07.081Z,16.93
2019-04-29T10:39:46.111Z,17.73
2019-04-29T10:42:26.544Z,16.30
2019-04-29T10:45:06.669Z,15.03
2019-04-29T10:47:54.369Z,16.53
2019-04-29T10:50:36.356Z,15.60
2019-04-29T10:53:10.944Z,17.53
2019-04-29T10:55:40.094Z,15.73
2019-04-29T10:58:10.284Z,14.97
2019-04-29T11:01:12.054Z,15.00
2019-04-29T11:03:41.938Z,15.17
2019-04-29T11:06:12.086Z,15.70
2019-04-29T11:08:49.493Z,15.27
2019-04-29T11:11:23.278Z,15.60
2019-04-29T11:14:09.829Z,18.40
2019-04-29T11:16:46.480Z,16.67
2019-04-29T11:19:13.582Z,14.33
2019-04-29T11:21:43.156Z,15.80
2019-04-29T11:24:14.322Z,16.80
2019-04-29T11:26:48.486Z,15.57
2019-04-29T11:29:22.225Z,17.43
2019-04-29T11:31:53.946Z,15.20
2019-04-29T11:34:33.279Z,17.20
2019-04-29T11:37:02.422Z,15.07
2019-04-29T11:39:32.365Z,18.03
2019-04-29T11:42:05.331Z,16.37
2019-04-29T11:44:35.234Z,14.70
2019-04-29T11:47:07.955Z,14.80
2019-04-29T11:49:39.099Z,15.87
2019-04-29T11:52:10.237Z,15.40
2019-04-29T11:54:40.140Z,15.03
2019-04-29T11:57:12.995Z,14.53
2019-04-29T11:59:51.016Z,16.47
2019-04-29T12:02:44.149Z,15.50
2019-04-29T12:04:58.439Z,14.77
2019-04-29T12:07:32.556Z,15.63
2019-04-29T12:10:02.273Z,14.80
2019-04-29T12:12:31.142Z,16.10
2019-04-29T12:15:09.118Z,15.50
2019-04-29T12:17:45.004Z,14.00
2019-04-29T12:20:28.849Z,14.83
2019-04-29T12:22:58.485Z,15.87
2019-04-29T12:25:29.293Z,16.27
2019-04-29T12:28:01.805Z,16.50
2019-04-29T12:30:34.562Z,14.70
2019-04-29T12:33:14.701Z,14.40
2019-04-29T12:35:52.126Z,15.83
2019-04-29T12:38:38.812Z,16.47
2019-04-29T12:40:58.773Z,14.70
2019-04-29T12:43:36.131Z,15.80
2019-04-29T12:46:24.039Z,13.10
2019-04-29T12:48:53.627Z,15.97
2019-04-29T12:51:23.621Z,16.27
2019-04-29T12:53:53.743Z,13.87
2019-04-29T12:56:34.201Z,17.00
2019-04-29T12:59:04.472Z,16.20
2019-04-29T13:01:54.172Z,14.57
2019-04-29T13:04:36.371Z,15.20
2019-04-29T13:07:16.759Z,14.27
2019-04-29T13:09:48.233Z,13.90
2019-04-29T13:12:20.018Z,14.83
2019-04-29T13:15:03.103Z,15.83
2019-04-29T13:17:38.284Z,15.90
2019-04-29T13:20:11.878Z,14.80
2019-04-29T13:22:40.919Z,15.10
2019-04-29T13:25:15.362Z,15.40
2019-04-29T13:27:43.414Z,13.90
2019-04-29T13:30:16.214Z,14.00
2019-04-29T13:32:44.854Z,12.60
2019-04-29T13:35:14.654Z,13.80
2019-04-29T13:37:44.197Z,16.10
2019-04-29T13:40:14.726Z,15.27
2019-04-29T13:42:48.709Z,15.63
2019-04-29T13:45:20.102Z,16.20
2019-04-29T13:48:07.246Z,16.97
2019-04-29T13:50:51.553Z,16.20
2019-04-29T13:53:21.489Z,15.80
2019-04-29T13:56:10.008Z,17.10
2019-04-29T13:58:26.766Z,17.73
2019-04-29T14:01:01.898Z,15.30
2019-04-29T14:03:42.043Z,15.23
2019-04-29T14:06:14.332Z,17.23
2019-04-29T14:08:42.158Z,15.43
2019-04-29T14:11:11.691Z,16.93
2019-04-29T14:13:48.216Z,17.00
2019-04-29T14:16:34.926Z,16.57
2019-04-29T14:19:04.687Z,16.40
2019-04-29T14:21:34.204Z,15.47
2019-04-29T14:24:03.721Z,17.90
2019-04-29T14:26:36.969Z,14.43
2019-04-29T14:29:05.405Z,17.10
2019-04-29T14:31:34.946Z,17.50
2019-04-29T14:34:09.051Z,16.47
2019-04-29T14:36:38.567Z,15.50
2019-04-29T14:39:36.580Z,17.07
2019-04-29T14:42:00.247Z,15.50
2019-04-29T14:44:40.196Z,17.50
2019-04-29T14:47:27.585Z,16.40
2019-04-29T14:49:58.821Z,17.40
2019-04-29T14:52:28.482Z,16.83
2019-04-29T14:54:58.031Z,15.00
2019-04-29T14:57:27.542Z,16.63
2019-04-29T14:59:57.180Z,16.67
2019-04-29T15:02:27.704Z,16.10
2019-04-29T15:04:57.688Z,16.43
2019-04-29T15:07:29.239Z,17.17
2019-04-29T15:09:58.987Z,16.10
2019-04-29T15:12:51.110Z,16.70
2019-04-29T15:15:13.323Z,15.57
2019-04-29T15:17:47.564Z,16.63
2019-04-29T15:20:18.788Z,15.67
2019-04-29T15:22:48.295Z,16.80
2019-04-29T15:25:20.960Z,17.40
2019-04-29T15:27:49.404Z,16.27
2019-04-29T15:30:19.124Z,16.80
2019-04-29T15:32:48.764Z,17.50
2019-04-29T15:35:24.344Z,16.97
2019-04-29T15:37:51.397Z,16.33
2019-04-29T15:40:26.102Z,15.10
2019-04-29T15:42:53.524Z,16.27
2019-04-29T15:45:23.455Z,17.33
2019-04-29T15:47:53.156Z,17.80
2019-04-29T15:50:22.751Z,17.00
2019-04-29T15:52:52.610Z,17.30
2019-04-29T15:55:22.228Z,16.33
2019-04-29T15:57:52.492Z,17.80
2019-04-29T16:00:23.791Z,17.70
2019-04-29T16:02:54.228Z,16.60
2019-04-29T16:05:56.070Z,17.93
2019-04-29T16:08:21.005Z,17.33
2019-04-29T16:11:01.074Z,5.87
2019-04-29T16:13:30.578Z,6.87
2019-04-29T16:16:00.006Z,7.07
2019-04-29T16:18:29.524Z,9.87
2019-04-29T16:20:59.188Z,13.13
2019-04-29T16:23:32.928Z,18.30
2019-04-29T16:25:59.923Z,17.60
2019-04-29T16:28:31.388Z,18.83
2019-04-29T16:31:05.191Z,17.03
2019-04-29T16:33:31.825Z,17.63
2019-04-29T16:36:04.711Z,17.97
2019-04-29T16:38:33.184Z,18.90
2019-04-29T16:41:12.446Z,19.03
2019-04-29T16:43:43.275Z,17.40
2019-04-29T16:46:14.703Z,17.40
2019-04-29T16:48:44.741Z,19.80
2019-04-29T16:51:16.727Z,17.00
2019-04-29T16:53:46.591Z,17.07
2019-04-29T16:56:16.625Z,18.90
2019-04-29T16:58:47.807Z,18.20
2019-04-29T17:01:17.487Z,17.60
2019-04-29T17:03:47.005Z,17.73
2019-04-29T17:06:16.819Z,19.13
2019-04-29T17:09:05.113Z,18.53
2019-04-29T17:11:33.814Z,17.80
2019-04-29T17:14:10.093Z,18.83
2019-04-29T17:16:34.696Z,18.70
2019-04-29T17:19:06.248Z,16.97
2019-04-29T17:21:35.744Z,19.33
2019-04-29T17:24:06.056Z,19.50
2019-04-29T17:26:37.589Z,17.70
2019-04-29T17:29:38.307Z,18.23
2019-04-29T17:32:07.465Z,19.73
2019-04-29T17:34:57.918Z,21.23
2019-04-29T17:37:10.642Z,18.50
2019-04-29T17:39:40.161Z,18.13
2019-04-29T17:42:09.849Z,17.20
2019-04-29T17:44:46.467Z,19.30
2019-04-29T17:47:34.009Z,15.83
2019-04-29T17:50:06.807Z,18.50
2019-04-29T17:52:37.180Z,19.60
2019-04-29T17:55:11.439Z,17.70
2019-04-29T17:57:42.583Z,18.50
2019-04-29T18:00:15.721Z,19.30
2019-04-29T18:03:00.867Z,17.40
2019-04-29T18:05:52.205Z,20.27
2019-04-29T18:08:06.738Z,18.53
2019-04-29T18:10:41.676Z,19.30
2019-04-29T18:13:12.482Z,19.47
2019-04-29T18:15:57.914Z,16.10
2019-04-29T18:18:17.340Z,23.80
2019-04-29T18:21:06.425Z,25.00
2019-04-29T18:23:51.565Z,24.30
2019-04-29T18:26:22.527Z,25.37
2019-04-29T18:28:52.114Z,21.57
2019-04-29T18:31:21.653Z,20.13
2019-04-29T18:33:51.176Z,21.20
2019-04-29T18:36:24.159Z,19.37
2019-04-29T18:38:52.284Z,19.13
2019-04-29T18:41:26.751Z,17.30
2019-04-29T18:43:56.340Z,18.10
2019-04-29T18:46:25.895Z,23.67
2019-04-29T18:49:02.639Z,16.73
2019-04-29T18:51:28.747Z,18.40
2019-04-29T18:53:58.493Z,19.60
2019-04-29T18:56:28.157Z,20.97
2019-04-29T18:58:57.696Z,21.20
2019-04-29T19:01:28.817Z,20.10
2019-04-29T19:04:16.205Z,15.70
2019-04-29T19:06:40.880Z,16.03
2019-04-29T19:09:17.819Z,20.77
2019-04-29T19:11:43.875Z,20.10
2019-04-29T19:14:15.079Z,20.43
2019-04-29T19:16:45.880Z,20.37
2019-04-29T19:19:18.626Z,22.33
2019-04-29T19:21:47.494Z,18.40
2019-04-29T19:24:17.093Z,21.43
2019-04-29T19:26:46.625Z,21.50
2019-04-29T19:29:16.232Z,20.70
2019-04-29T19:31:49.442Z,21.03
2019-04-29T19:34:18.644Z,20.80
2019-04-29T19:36:50.814Z,21.80
2019-04-29T19:39:21.691Z,22.80
2019-04-29T19:41:51.683Z,20.43
2019-04-29T19:44:21.591Z,16.87
2019-04-29T19:46:51.169Z,20.00
2019-04-29T19:49:20.904Z,21.07
2019-04-29T19:51:50.449Z,21.00
2019-04-29T19:54:24.666Z,18.73
2019-04-29T19:57:10.451Z,15.20
2019-04-29T19:59:49.902Z,18.37
2019-04-29T20:02:11.646Z,17.80
2019-04-29T20:04:52.201Z,17.57
2019-04-29T20:07:21.271Z,19.93
2019-04-29T20:09:59.659Z,21.40
2019-04-29T20:12:25.356Z,20.03
2019-04-29T20:14:59.720Z,17.93
2019-04-29T20:17:30.597Z,20.30
2019-04-29T20:20:05.299Z,23.37
2019-04-29T20:22:37.037Z,18.87
2019-04-29T20:25:07.410Z,21.07
2019-04-29T20:27:37.740Z,19.50
2019-04-29T20:30:16.271Z,18.87
2019-04-29T20:32:39.833Z,22.00
2019-04-29T20:35:09.978Z,22.57
2019-04-29T20:37:39.696Z,16.23
2019-04-29T20:40:09.535Z,18.00
2019-04-29T20:42:40.400Z,21.13
2019-04-29T20:45:11.386Z,17.33
2019-04-29T20:47:42.197Z,18.23
2019-04-29T20:50:13.992Z,19.10
2019-04-29T20:53:01.919Z,20.10
2019-04-29T20:55:32.009Z,18.37
2019-04-29T20:58:00.019Z,19.80
2019-04-29T21:00:31.453Z,20.97
2019-04-29T21:03:04.166Z,19.53
2019-04-29T21:05:32.367Z,19.20
2019-04-29T21:08:03.460Z,21.93
2019-04-29T21:10:38.011Z,16.97
2019-04-29T21:13:19.885Z,21.27
2019-04-29T21:16:05.250Z,16.53
2019-04-29T21:18:35.426Z,15.53
2019-04-29T21:21:07.896Z,15.60
2019-04-29T21:23:37.615Z,15.60
2019-04-29T21:26:08.734Z,17.73
2019-04-29T21:28:41.229Z,20.40
2019-04-29T21:31:11.810Z,16.40
2019-04-29T21:33:40.723Z,15.37
2019-04-29T21:36:12.071Z,21.50
2019-04-29T21:38:45.057Z,15.87
2019-04-29T21:41:20.251Z,16.60
2019-04-29T21:43:53.481Z,16.30
2019-04-29T21:46:27.918Z,17.77
2019-04-29T21:48:51.374Z,17.67
2019-04-29T21:51:21.059Z,18.90
2019-04-29T21:53:50.570Z,17.20
2019-04-29T21:56:20.008Z,17.00
2019-04-29T21:58:49.476Z,19.73
2019-04-29T22:01:19.262Z,16.87
2019-04-29T22:03:48.781Z,15.97
2019-04-29T22:06:18.320Z,19.37
2019-04-29T22:08:48.126Z,16.00
2019-04-29T22:11:17.646Z,19.73
2019-04-29T22:13:47.412Z,19.80
2019-04-29T22:16:17.668Z,18.60
2019-04-29T22:18:52.000Z,17.33
2019-04-29T22:21:22.100Z,20.03
2019-04-29T22:23:51.031Z,18.00
2019-04-29T22:26:23.221Z,20.43
2019-04-29T22:28:53.338Z,16.60
2019-04-29T22:31:28.359Z,17.77
2019-04-29T22:33:55.331Z,20.57
2019-04-29T22:36:25.897Z,18.50
2019-04-29T22:38:55.807Z,18.30
2019-04-29T22:41:43.696Z,19.90
2019-04-29T22:44:21.568Z,18.60
2019-04-29T22:46:47.238Z,16.53
2019-04-29T22:49:24.575Z,19.17
2019-04-29T22:51:49.689Z,23.13
2019-04-29T22:54:21.983Z,21.00
2019-04-29T22:56:54.179Z,18.23
2019-04-29T22:59:25.361Z,17.17
2019-04-29T23:01:55.643Z,21.80
2019-04-29T23:04:25.424Z,21.57
2019-04-29T23:06:54.932Z,17.20
2019-04-29T23:09:24.371Z,20.33
2019-04-29T23:11:55.690Z,17.77
2019-04-29T23:14:25.337Z,17.20
2019-04-29T23:16:55.577Z,16.63
2019-04-29T23:19:26.008Z,17.83
2019-04-29T23:22:06.111Z,20.23
2019-04-29T23:24:55.915Z,18.77
2019-04-29T23:27:25.897Z,17.87
2019-04-29T23:29:57.740Z,22.20
2019-04-29T23:32:27.288Z,20.40
2019-04-29T23:34:57.227Z,20.13
2019-04-29T23:37:29.856Z,19.13
2019-04-29T23:39:59.678Z,22.33
2019-04-29T23:42:31.026Z,18.03
2019-04-29T23:45:00.540Z,18.47
2019-04-29T23:47:30.436Z,22.83
2019-04-29T23:49:59.876Z,15.43
2019-04-29T23:52:29.753Z,15.37
2019-04-29T23:54:59.293Z,17.20
2019-04-29T23:57:42.788Z,19.47
